Ogema, Wisconsin
Current Conditions -  °F | °C
As of 12:55 PM on Monday 20 Oct 2014 (Local Time) from KPBH Reporting Station
Overcast Overcast  
Wind Chill: 45°   Ceiling: 2100
Heat Index: 48°   Visibility: 10mi
Dew Point: 40°   Wind: 8mph
Humidity: 74%   Direction: 330°NNW
Pressure: 29.93"   Gusts: NA
Location:  45.44°N, 90.3°W
Report Text: KPBH 201755Z AUTO 33007KT 10SM BKN021 BKN027 OVC033 09/05 A2993 RMK AO2 T00900046 10092 20054
Loading
Personal Weather Stations






























Interactive Weather Map
Tropical Storm Tracking
New forecast layout! Learn more

10-Day Weather Forecast

Advertisements
Track Severe Weather on mobile